createdAt,value
2022-08-26T00:01:59.090Z,62.66
2022-08-26T00:04:29.477Z,62.81
2022-08-26T00:07:02.687Z,62.73
2022-08-26T00:09:30.810Z,63.29
2022-08-26T00:12:03.757Z,62.83
2022-08-26T00:14:31.815Z,63.33
2022-08-26T00:17:05.342Z,63.97
2022-08-26T00:19:40.987Z,63.92
2022-08-26T00:22:10.115Z,64.14
2022-08-26T00:24:39.674Z,64.69
2022-08-26T00:27:17.358Z,65.44
2022-08-26T00:29:45.651Z,64.64
2022-08-26T00:32:17.614Z,65.31
2022-08-26T00:34:45.814Z,65.99
2022-08-26T00:37:20.170Z,64.85
2022-08-26T00:39:50.680Z,64.61
2022-08-26T00:42:22.251Z,65.18
2022-08-26T00:44:51.212Z,65.68
2022-08-26T00:47:40.600Z,65.47
2022-08-26T00:50:12.800Z,65.67
2022-08-26T00:52:44.065Z,65.78
2022-08-26T00:55:20.588Z,65.70
2022-08-26T00:57:51.233Z,66.12
2022-08-26T01:00:25.163Z,66.29
2022-08-26T01:02:57.027Z,66.34
2022-08-26T01:05:28.057Z,65.93
2022-08-26T01:07:56.171Z,66.17
2022-08-26T01:10:28.001Z,65.71
2022-08-26T01:12:58.043Z,66.39
2022-08-26T01:15:33.543Z,66.07
2022-08-26T01:18:07.656Z,65.46
2022-08-26T01:20:57.924Z,65.61
2022-08-26T01:27:23.193Z,65.98
2022-08-26T01:29:51.970Z,66.23
2022-08-26T01:32:23.152Z,66.46
2022-08-26T01:34:59.045Z,66.73
2022-08-26T01:37:33.144Z,66.30
2022-08-26T01:40:01.270Z,66.22
2022-08-26T01:42:29.732Z,66.91
2022-08-26T01:45:08.875Z,66.65
2022-08-26T01:47:38.047Z,66.64
2022-08-26T01:50:10.028Z,66.70
2022-08-26T01:52:42.692Z,66.30
2022-08-26T01:55:13.884Z,67.15
2022-08-26T01:57:56.949Z,66.62
2022-08-26T02:00:32.160Z,66.48
2022-08-26T02:03:19.859Z,66.04
2022-08-26T02:05:54.481Z,66.14
2022-08-26T02:08:28.107Z,65.85
2022-08-26T02:10:56.300Z,66.43
2022-08-26T02:13:30.247Z,66.33
2022-08-26T02:16:00.661Z,66.38
2022-08-26T02:18:53.267Z,66.67
2022-08-26T02:21:21.616Z,66.64
2022-08-26T02:23:56.253Z,66.84
2022-08-26T02:26:30.674Z,66.44
2022-08-26T02:29:02.486Z,66.37
2022-08-26T02:31:30.686Z,66.33
2022-08-26T02:34:16.666Z,66.28
2022-08-26T02:36:44.734Z,66.56
2022-08-26T02:39:21.966Z,66.66
2022-08-26T02:41:55.811Z,66.92
2022-08-26T02:44:24.086Z,66.42
2022-08-26T02:46:57.721Z,66.48
2022-08-26T02:49:31.637Z,66.94
2022-08-26T02:52:10.874Z,66.73
2022-08-26T02:54:41.551Z,66.29
2022-08-26T02:57:10.282Z,66.48
2022-08-26T02:59:53.663Z,66.97
2022-08-26T03:02:21.777Z,66.78
2022-08-26T03:04:57.991Z,67.15
2022-08-26T03:07:30.577Z,66.86
2022-08-26T03:10:08.482Z,67.17
2022-08-26T03:12:41.191Z,67.34
2022-08-26T03:15:17.469Z,67.10
2022-08-26T03:17:47.729Z,67.49
2022-08-26T03:20:20.648Z,67.69
2022-08-26T03:22:53.699Z,68.12
2022-08-26T03:25:26.058Z,68.21
2022-08-26T03:27:55.146Z,68.13
2022-08-26T03:30:45.430Z,68.52
2022-08-26T03:33:14.554Z,68.52
2022-08-26T03:35:45.424Z,68.56
2022-08-26T03:38:13.993Z,69.44
2022-08-26T03:40:43.543Z,69.09
2022-08-26T03:43:16.465Z,68.43
2022-08-26T03:45:45.003Z,69.15
2022-08-26T03:48:15.431Z,68.62
2022-08-26T03:50:47.610Z,69.39
2022-08-26T03:53:20.629Z,68.75
2022-08-26T03:55:52.603Z,68.51
2022-08-26T03:58:22.278Z,68.82
2022-08-26T04:00:55.583Z,68.81
2022-08-26T04:03:43.651Z,68.79
2022-08-26T04:06:16.937Z,68.54
2022-08-26T04:08:49.914Z,68.55
2022-08-26T04:11:22.972Z,68.65
2022-08-26T04:13:51.284Z,68.28
2022-08-26T04:16:19.837Z,68.85
2022-08-26T04:18:51.497Z,68.89
2022-08-26T04:21:23.616Z,68.40
2022-08-26T04:23:52.092Z,68.50
2022-08-26T04:26:23.678Z,68.19
2022-08-26T04:28:53.751Z,67.97
2022-08-26T04:31:22.324Z,67.73
2022-08-26T04:33:51.003Z,67.47
2022-08-26T04:36:20.093Z,67.31
2022-08-26T04:38:57.123Z,66.97
2022-08-26T04:41:25.241Z,66.96
2022-08-26T04:43:54.312Z,66.64
2022-08-26T04:46:26.608Z,66.48
2022-08-26T04:48:55.489Z,66.79
2022-08-26T04:51:30.826Z,66.48
2022-08-26T04:54:01.369Z,66.47
2022-08-26T04:56:33.109Z,66.27
2022-08-26T04:59:17.170Z,66.13
2022-08-26T05:01:51.902Z,65.88
2022-08-26T05:04:21.095Z,65.55
2022-08-26T05:07:02.655Z,65.12
2022-08-26T05:09:31.560Z,64.72
2022-08-26T05:12:02.453Z,64.20
2022-08-26T05:14:57.082Z,63.56
2022-08-26T05:17:31.667Z,63.23
2022-08-26T05:20:00.904Z,62.05
2022-08-26T05:22:29.753Z,61.65
2022-08-26T05:25:02.173Z,61.26
2022-08-26T05:27:33.373Z,60.84
2022-08-26T05:30:04.154Z,59.97
2022-08-26T05:32:32.259Z,60.00
2022-08-26T05:35:00.421Z,60.43
2022-08-26T05:37:32.461Z,59.22
2022-08-26T05:40:09.087Z,58.56
2022-08-26T05:42:38.618Z,58.26
2022-08-26T05:45:07.080Z,58.45
2022-08-26T05:47:35.274Z,57.73
2022-08-26T05:50:09.112Z,56.72
2022-08-26T05:52:37.783Z,57.27
2022-08-26T05:55:11.840Z,57.08
2022-08-26T05:57:42.887Z,54.47
2022-08-26T06:00:12.992Z,55.37
2022-08-26T06:02:41.069Z,53.32
2022-08-26T06:05:09.320Z,53.36
2022-08-26T06:07:56.232Z,53.09
2022-08-26T06:10:32.961Z,51.40
2022-08-26T06:13:09.322Z,51.70
2022-08-26T06:15:44.211Z,50.96
2022-08-26T06:18:14.784Z,50.62
2022-08-26T06:20:54.629Z,49.16
2022-08-26T06:23:46.040Z,52.17
2022-08-26T06:26:16.047Z,48.20
2022-08-26T06:28:45.352Z,45.60
2022-08-26T06:31:16.547Z,46.01
2022-08-26T06:33:44.923Z,45.21
2022-08-26T06:36:21.699Z,46.65
2022-08-26T06:38:52.665Z,45.28
2022-08-26T06:41:22.978Z,45.06
2022-08-26T06:43:51.111Z,46.56
2022-08-26T06:46:20.117Z,43.37
2022-08-26T06:48:48.161Z,42.57
2022-08-26T06:51:23.596Z,44.84
2022-08-26T06:53:54.236Z,43.17
2022-08-26T06:56:25.529Z,40.34
2022-08-26T06:58:58.996Z,37.14
2022-08-26T07:01:34.285Z,40.96
2022-08-26T07:04:12.540Z,39.97
2022-08-26T07:07:06.143Z,36.84
2022-08-26T07:10:00.183Z,37.77
2022-08-26T07:12:31.142Z,35.57
2022-08-26T07:15:03.400Z,35.64
2022-08-26T07:17:38.778Z,37.32
2022-08-26T07:20:20.123Z,36.43
2022-08-26T07:22:56.020Z,32.59
2022-08-26T07:25:29.436Z,35.98
2022-08-26T07:28:02.111Z,36.50
2022-08-26T07:30:32.714Z,34.31
2022-08-26T07:33:13.632Z,32.71
2022-08-26T07:35:45.759Z,34.09
2022-08-26T07:38:18.289Z,30.12
2022-08-26T07:40:47.029Z,30.61
2022-08-26T07:43:16.036Z,31.34
2022-08-26T07:58:08.679Z,26.86
2022-08-26T08:04:13.888Z,27.22
2022-08-26T08:06:45.131Z,27.00
2022-08-26T08:09:16.064Z,27.24
2022-08-26T08:12:14.007Z,26.44
2022-08-26T08:14:47.110Z,24.50
2022-08-26T08:17:28.233Z,24.09
2022-08-26T08:20:08.376Z,24.13
2022-08-26T08:22:39.321Z,23.57
2022-08-26T08:25:13.466Z,26.50
2022-08-26T08:27:46.615Z,24.01
2022-08-26T08:30:22.772Z,25.86
2022-08-26T08:32:57.171Z,25.59
2022-08-26T08:35:44.705Z,24.10
2022-08-26T08:38:16.699Z,23.39
2022-08-26T08:40:49.079Z,25.57
2022-08-26T08:43:30.012Z,22.43
2022-08-26T08:45:59.944Z,22.66
2022-08-26T08:48:33.111Z,24.31
2022-08-26T08:51:12.350Z,23.75
2022-08-26T08:53:45.803Z,21.52
2022-08-26T08:56:28.598Z,21.90
2022-08-26T08:58:59.686Z,21.41
2022-08-26T09:01:52.547Z,21.30
2022-08-26T09:04:46.977Z,20.93
2022-08-26T09:07:38.120Z,19.73
2022-08-26T09:10:27.006Z,17.76
2022-08-26T09:12:55.686Z,20.46
2022-08-26T09:15:30.641Z,19.22
2022-08-26T09:18:10.815Z,17.75
2022-08-26T09:20:59.713Z,18.29
2022-08-26T09:23:31.709Z,16.57
2022-08-26T09:26:29.371Z,16.81
2022-08-26T09:29:05.060Z,14.96
2022-08-26T09:31:43.253Z,14.25
2022-08-26T09:34:24.147Z,14.41
2022-08-26T09:37:05.595Z,15.41
2022-08-26T09:39:38.324Z,16.10
2022-08-26T09:42:25.649Z,17.22
2022-08-26T09:44:56.795Z,15.46
2022-08-26T09:48:07.509Z,14.83
2022-08-26T09:55:05.887Z,15.34
2022-08-26T09:58:28.926Z,15.13
2022-08-26T10:01:27.248Z,15.31
2022-08-26T10:04:11.355Z,14.61
2022-08-26T10:06:46.211Z,14.83
2022-08-26T10:13:12.437Z,14.89
2022-08-26T10:15:52.250Z,14.11
2022-08-26T10:18:34.295Z,15.28
2022-08-26T10:21:29.016Z,14.52
2022-08-26T10:24:00.926Z,14.72
2022-08-26T10:26:39.539Z,15.29
2022-08-26T10:29:21.187Z,15.49
2022-08-26T10:32:02.679Z,16.72
2022-08-26T10:34:36.883Z,16.36
2022-08-26T10:37:17.350Z,14.42
2022-08-26T10:40:13.075Z,14.84
2022-08-26T10:43:08.530Z,15.56
2022-08-26T10:45:44.591Z,15.39
2022-08-26T10:48:16.410Z,16.48
2022-08-26T10:50:51.028Z,15.96
2022-08-26T10:53:36.176Z,17.04
2022-08-26T10:56:26.207Z,16.67
2022-08-26T10:59:24.575Z,15.48
2022-08-26T11:02:29.888Z,15.65
2022-08-26T11:05:07.488Z,15.12
2022-08-26T11:07:57.395Z,14.79
2022-08-26T11:10:30.994Z,16.18
2022-08-26T11:13:02.918Z,15.95
2022-08-26T11:15:35.383Z,15.62
2022-08-26T11:18:10.379Z,15.28
2022-08-26T11:20:42.636Z,15.15
2022-08-26T11:23:21.680Z,15.08
2022-08-26T11:25:57.234Z,16.29
2022-08-26T11:29:00.874Z,17.34
2022-08-26T11:35:07.124Z,15.99
2022-08-26T11:37:42.935Z,16.60
2022-08-26T11:40:21.657Z,15.71
2022-08-26T11:42:59.588Z,16.60
2022-08-26T11:45:32.958Z,16.24
2022-08-26T11:48:16.394Z,16.33
2022-08-26T11:51:04.813Z,15.07
2022-08-26T11:53:34.561Z,16.75
2022-08-26T11:56:06.129Z,16.65
2022-08-26T11:58:36.205Z,16.48
2022-08-26T12:01:09.811Z,17.30
2022-08-26T12:03:49.923Z,17.24
2022-08-26T12:07:02.217Z,16.21
2022-08-26T12:09:35.978Z,15.92
2022-08-26T12:12:12.110Z,15.72
2022-08-26T12:14:40.856Z,15.46
2022-08-26T12:17:27.734Z,15.75
2022-08-26T12:20:13.200Z,15.94
2022-08-26T12:22:48.130Z,17.30
2022-08-26T12:25:23.815Z,16.66
2022-08-26T12:28:10.869Z,16.07
2022-08-26T12:31:03.194Z,16.97
2022-08-26T12:33:41.410Z,17.33
2022-08-26T12:36:16.138Z,16.71
2022-08-26T12:38:45.265Z,16.98
2022-08-26T12:41:36.333Z,16.33
2022-08-26T12:44:12.101Z,16.71
2022-08-26T12:46:43.934Z,17.49
2022-08-26T12:49:21.975Z,17.14
2022-08-26T12:51:59.135Z,16.72
2022-08-26T12:54:56.831Z,16.94
2022-08-26T12:57:36.224Z,17.21
2022-08-26T13:00:47.836Z,17.22
2022-08-26T13:03:50.683Z,18.06
2022-08-26T13:06:34.890Z,18.67
2022-08-26T13:09:29.202Z,18.26
2022-08-26T13:12:00.250Z,17.71
2022-08-26T13:14:38.400Z,18.41
2022-08-26T13:17:06.589Z,18.69
2022-08-26T13:19:40.185Z,19.26
2022-08-26T13:22:17.617Z,19.19
2022-08-26T13:24:49.375Z,19.07
2022-08-26T13:27:28.767Z,18.98
2022-08-26T13:30:04.015Z,18.65
2022-08-26T13:32:39.394Z,19.21
2022-08-26T13:35:15.218Z,19.51
2022-08-26T13:37:49.230Z,19.67
2022-08-26T13:40:25.535Z,19.60
2022-08-26T13:42:55.853Z,19.30
2022-08-26T13:45:30.719Z,19.78
2022-08-26T13:48:03.686Z,20.09
2022-08-26T13:50:38.422Z,19.86
2022-08-26T13:53:06.551Z,19.83
2022-08-26T13:55:43.482Z,20.10
2022-08-26T13:58:17.317Z,20.28
2022-08-26T14:00:51.328Z,20.28
2022-08-26T14:03:25.894Z,20.01
2022-08-26T14:06:00.881Z,20.16
2022-08-26T14:08:33.368Z,20.57
2022-08-26T14:11:11.192Z,21.28
2022-08-26T14:13:54.531Z,20.72
2022-08-26T14:16:31.766Z,21.04
2022-08-26T14:19:19.824Z,21.02
2022-08-26T14:21:57.197Z,20.99
2022-08-26T14:24:29.147Z,21.06
2022-08-26T14:26:57.270Z,20.84
2022-08-26T14:29:30.081Z,21.13
2022-08-26T14:32:02.823Z,20.86
2022-08-26T14:34:35.795Z,21.39
2022-08-26T14:37:15.129Z,21.56
2022-08-26T14:39:52.737Z,21.63
2022-08-26T14:42:24.088Z,21.20
2022-08-26T14:45:03.462Z,21.45
2022-08-26T14:47:35.233Z,21.87
2022-08-26T14:50:18.194Z,21.69
2022-08-26T14:53:08.835Z,22.09
2022-08-26T14:55:43.772Z,22.43
2022-08-26T14:58:21.889Z,22.49
2022-08-26T15:01:06.624Z,22.79
2022-08-26T15:03:37.839Z,22.83
2022-08-26T15:06:07.093Z,22.71
2022-08-26T15:08:41.559Z,22.60
2022-08-26T15:11:19.794Z,22.97
2022-08-26T15:13:55.175Z,22.88
2022-08-26T15:16:28.386Z,23.11
2022-08-26T15:19:01.704Z,23.35
2022-08-26T15:21:39.857Z,22.99
2022-08-26T15:24:11.945Z,23.20
2022-08-26T15:26:50.278Z,23.25
2022-08-26T15:29:36.203Z,23.35
2022-08-26T15:32:16.792Z,23.52
2022-08-26T15:34:47.232Z,23.92
2022-08-26T15:37:25.430Z,23.91
2022-08-26T15:39:57.259Z,24.32
2022-08-26T15:42:39.989Z,24.36
2022-08-26T15:45:13.434Z,24.13
2022-08-26T15:48:03.622Z,24.61
2022-08-26T15:50:31.707Z,24.87
2022-08-26T15:53:03.367Z,24.87
2022-08-26T15:55:44.963Z,24.64
2022-08-26T15:58:23.238Z,24.62
2022-08-26T16:00:58.491Z,24.69
2022-08-26T16:03:33.873Z,24.56
2022-08-26T16:06:15.488Z,24.73
2022-08-26T16:08:50.080Z,24.76
2022-08-26T16:11:30.620Z,24.85
2022-08-26T16:14:04.214Z,24.84
2022-08-26T16:16:33.431Z,24.81
2022-08-26T16:19:12.309Z,25.24
2022-08-26T16:21:45.076Z,26.17
2022-08-26T16:24:30.182Z,27.06
2022-08-26T16:27:06.146Z,28.03
2022-08-26T16:29:40.646Z,29.25
2022-08-26T16:32:17.119Z,31.30
2022-08-26T16:34:56.659Z,32.42
2022-08-26T16:37:42.247Z,34.12
2022-08-26T16:40:14.024Z,34.68
2022-08-26T16:42:57.305Z,36.11
2022-08-26T16:45:26.824Z,37.24
2022-08-26T16:48:05.045Z,37.83
2022-08-26T16:50:37.245Z,38.59
2022-08-26T16:53:16.282Z,38.96
2022-08-26T16:55:52.538Z,39.61
2022-08-26T16:58:35.993Z,40.14
2022-08-26T17:01:15.998Z,41.54
2022-08-26T17:03:57.432Z,41.67
2022-08-26T17:06:32.047Z,42.27
2022-08-26T17:09:09.349Z,42.23
2022-08-26T17:11:37.438Z,42.59
2022-08-26T17:14:12.063Z,43.96
2022-08-26T17:16:44.593Z,43.96
2022-08-26T17:19:26.331Z,43.48
2022-08-26T17:22:06.835Z,42.91
2022-08-26T17:24:49.981Z,41.31
2022-08-26T17:27:26.510Z,42.36
2022-08-26T17:30:01.663Z,44.02
2022-08-26T17:32:29.981Z,45.89
2022-08-26T17:35:07.484Z,41.88
2022-08-26T17:37:56.851Z,41.86
2022-08-26T17:40:30.389Z,42.81
2022-08-26T17:43:10.358Z,42.39
2022-08-26T17:45:48.112Z,42.17
2022-08-26T17:48:24.607Z,40.95
2022-08-26T17:50:55.111Z,40.65
2022-08-26T17:53:34.705Z,41.88
2022-08-26T17:56:10.001Z,42.91
2022-08-26T17:58:47.938Z,43.69
2022-08-26T18:01:31.119Z,43.46
2022-08-26T18:04:06.519Z,43.17
2022-08-26T18:06:41.572Z,43.29
2022-08-26T18:09:14.506Z,45.72
2022-08-26T18:11:49.699Z,43.68
2022-08-26T18:14:23.619Z,45.00
2022-08-26T18:16:57.191Z,45.14
2022-08-26T18:19:28.025Z,44.70
2022-08-26T18:21:59.813Z,46.69
2022-08-26T18:24:36.623Z,48.54
2022-08-26T18:27:08.214Z,47.48
2022-08-26T18:29:46.557Z,45.52
2022-08-26T18:32:18.158Z,46.37
2022-08-26T18:34:57.752Z,47.38
2022-08-26T18:37:31.604Z,48.16
2022-08-26T18:40:08.047Z,47.29
2022-08-26T18:42:36.338Z,49.06
2022-08-26T18:45:16.182Z,49.32
2022-08-26T18:47:48.728Z,49.66
2022-08-26T18:50:26.338Z,48.91
2022-08-26T18:53:00.623Z,49.32
2022-08-26T18:55:43.559Z,50.64
2022-08-26T18:58:19.227Z,50.69
2022-08-26T19:00:50.772Z,50.54
2022-08-26T19:03:20.509Z,50.00
2022-08-26T19:05:56.041Z,52.69
2022-08-26T19:08:31.131Z,53.93
2022-08-26T19:11:10.824Z,52.38
2022-08-26T19:13:46.548Z,53.08
2022-08-26T19:16:23.080Z,53.48
2022-08-26T19:19:02.552Z,52.50
2022-08-26T19:21:38.792Z,52.98
2022-08-26T19:24:19.524Z,51.57
2022-08-26T19:26:57.788Z,52.83
2022-08-26T19:29:39.046Z,53.74
2022-08-26T19:32:15.865Z,53.99
2022-08-26T19:34:53.299Z,53.51
2022-08-26T19:37:24.835Z,55.54
2022-08-26T19:40:02.739Z,54.98
2022-08-26T19:42:48.525Z,52.97
2022-08-26T19:45:24.750Z,54.23
2022-08-26T19:48:04.988Z,54.36
2022-08-26T19:50:44.923Z,54.69
2022-08-26T19:53:16.975Z,55.31
2022-08-26T19:55:55.690Z,55.41
2022-08-26T19:58:30.163Z,53.85
2022-08-26T20:01:02.124Z,54.16
2022-08-26T20:03:34.237Z,55.42
2022-08-26T20:06:08.590Z,55.99
2022-08-26T20:08:47.819Z,56.89
2022-08-26T20:11:30.938Z,55.88
2022-08-26T20:14:10.435Z,55.92
2022-08-26T20:16:47.235Z,57.54
2022-08-26T20:19:37.520Z,60.43
2022-08-26T20:22:18.090Z,61.02
2022-08-26T20:24:55.269Z,58.18
2022-08-26T20:27:38.076Z,59.98
2022-08-26T20:30:16.660Z,58.92
2022-08-26T20:32:44.903Z,57.94
2022-08-26T20:35:23.093Z,57.09
2022-08-26T20:38:11.698Z,59.30
2022-08-26T20:41:08.151Z,60.59
2022-08-26T20:43:40.689Z,59.43
2022-08-26T20:46:18.735Z,58.63
2022-08-26T20:48:55.034Z,58.00
2022-08-26T20:51:31.453Z,58.88
2022-08-26T20:54:12.144Z,58.38
2022-08-26T20:56:49.975Z,57.32
2022-08-26T20:59:21.468Z,58.76
2022-08-26T21:01:58.627Z,57.83
2022-08-26T21:04:39.741Z,57.10
2022-08-26T21:07:07.988Z,57.10
2022-08-26T21:09:47.827Z,57.17
2022-08-26T21:12:16.955Z,56.66
2022-08-26T21:14:49.541Z,57.66
2022-08-26T21:17:28.194Z,59.53
2022-08-26T21:20:02.609Z,58.33
2022-08-26T21:22:34.563Z,58.08
2022-08-26T21:25:10.217Z,57.52
2022-08-26T21:27:43.216Z,56.60
2022-08-26T21:30:17.334Z,59.54
2022-08-26T21:32:49.733Z,59.27
2022-08-26T21:35:24.899Z,58.86
2022-08-26T21:38:09.241Z,58.16
2022-08-26T21:40:41.852Z,58.80
2022-08-26T21:43:25.939Z,60.03
2022-08-26T21:46:22.911Z,59.29
2022-08-26T21:48:58.638Z,61.22
2022-08-26T21:51:44.313Z,60.25
2022-08-26T21:54:28.974Z,60.07
2022-08-26T21:57:00.216Z,60.12
2022-08-26T21:59:34.477Z,60.18
2022-08-26T22:02:13.656Z,60.82
2022-08-26T22:04:50.376Z,62.02
2022-08-26T22:07:24.963Z,59.30
2022-08-26T22:09:58.083Z,60.14
2022-08-26T22:12:35.151Z,60.37
2022-08-26T22:15:09.073Z,61.37
2022-08-26T22:17:47.369Z,61.30
2022-08-26T22:20:27.546Z,63.75
2022-08-26T22:23:02.335Z,63.97
2022-08-26T22:25:38.336Z,62.49
2022-08-26T22:28:18.952Z,62.03
2022-08-26T22:30:52.979Z,63.38
2022-08-26T22:33:28.568Z,62.31
2022-08-26T22:36:05.949Z,61.29
2022-08-26T22:38:38.068Z,62.46
2022-08-26T22:41:11.500Z,62.95
2022-08-26T22:43:45.017Z,62.49
2022-08-26T22:46:30.622Z,62.20
2022-08-26T22:49:05.987Z,63.04
2022-08-26T22:51:42.503Z,62.58
2022-08-26T22:54:17.408Z,63.92
2022-08-26T22:56:57.202Z,63.25
2022-08-26T22:59:32.452Z,63.85
2022-08-26T23:02:11.965Z,64.29
2022-08-26T23:04:47.312Z,64.16
2022-08-26T23:07:21.907Z,63.71
2022-08-26T23:09:51.137Z,63.29
2022-08-26T23:12:30.746Z,63.43
2022-08-26T23:15:10.053Z,65.21
2022-08-26T23:17:58.735Z,63.66
2022-08-26T23:20:32.744Z,65.74
2022-08-26T23:23:06.018Z,64.97
2022-08-26T23:25:48.268Z,65.89
2022-08-26T23:28:16.971Z,65.07
2022-08-26T23:30:49.076Z,64.57
2022-08-26T23:33:20.986Z,65.23
2022-08-26T23:36:00.252Z,65.54
2022-08-26T23:38:34.418Z,66.39
2022-08-26T23:41:07.837Z,68.22
2022-08-26T23:43:43.510Z,66.86
2022-08-26T23:46:13.967Z,65.27
2022-08-26T23:48:47.038Z,65.14
2022-08-26T23:51:38.259Z,65.04
2022-08-26T23:54:19.906Z,65.78
2022-08-26T23:56:51.072Z,66.59
2022-08-26T23:59:28.727Z,65.97
